sensor_id;sensor_type;location;lat;lon;timestamp;pressure;altitude;pressure_sealevel;temperature;humidity
46583;BME280;32309;48.858;8.252;2022-08-11T00:00:20;100611.34;;;21.75;36.72
46583;BME280;32309;48.858;8.252;2022-08-11T00:02:28;100612.47;;;21.72;35.54
46583;BME280;32309;48.858;8.252;2022-08-11T00:04:38;100620.22;;;21.56;35.91
46583;BME280;32309;48.858;8.252;2022-08-11T00:06:39;100620.81;;;21.50;35.67
46583;BME280;32309;48.858;8.252;2022-08-11T00:08:40;100622.88;;;21.56;36.37
46583;BME280;32309;48.858;8.252;2022-08-11T00:10:43;100616.31;;;21.60;37.08
46583;BME280;32309;48.858;8.252;2022-08-11T00:12:52;100619.47;;;21.64;37.42
46583;BME280;32309;48.858;8.252;2022-08-11T00:14:59;100614.75;;;21.67;37.31
46583;BME280;32309;48.858;8.252;2022-08-11T00:17:05;100617.81;;;21.63;37.62
46583;BME280;32309;48.858;8.252;2022-08-11T00:19:07;100620.63;;;21.61;37.88
46583;BME280;32309;48.858;8.252;2022-08-11T00:21:10;100623.41;;;21.59;36.32
46583;BME280;32309;48.858;8.252;2022-08-11T00:23:12;100626.72;;;21.61;36.46
46583;BME280;32309;48.858;8.252;2022-08-11T00:25:19;100627.72;;;21.60;37.23
46583;BME280;32309;48.858;8.252;2022-08-11T00:27:30;100621.59;;;21.60;37.19
46583;BME280;32309;48.858;8.252;2022-08-11T00:29:32;100619.91;;;21.59;37.04
46583;BME280;32309;48.858;8.252;2022-08-11T00:31:33;100622.44;;;21.60;36.88
46583;BME280;32309;48.858;8.252;2022-08-11T00:33:40;100626.03;;;21.59;37.33
46583;BME280;32309;48.858;8.252;2022-08-11T00:35:41;100621.91;;;21.57;37.62
46583;BME280;32309;48.858;8.252;2022-08-11T00:37:46;100614.41;;;21.52;37.89
46583;BME280;32309;48.858;8.252;2022-08-11T00:39:49;100619.00;;;21.50;38.21
46583;BME280;32309;48.858;8.252;2022-08-11T00:46:45;100628.41;;;21.35;36.97
46583;BME280;32309;48.858;8.252;2022-08-11T00:53:51;100619.75;;;21.24;36.35
46583;BME280;32309;48.858;8.252;2022-08-11T00:58:58;100615.22;;;21.17;38.22
46583;BME280;32309;48.858;8.252;2022-08-11T01:03:17;100619.28;;;21.11;37.18
46583;BME280;32309;48.858;8.252;2022-08-11T01:10:36;100613.09;;;21.02;37.99
46583;BME280;32309;48.858;8.252;2022-08-11T01:18:06;100612.28;;;21.02;38.55
46583;BME280;32309;48.858;8.252;2022-08-11T01:43:22;100627.44;;;19.75;38.96
46583;BME280;32309;48.858;8.252;2022-08-11T01:48:30;100626.22;;;19.79;39.34
46583;BME280;32309;48.858;8.252;2022-08-11T01:50:49;100627.03;;;19.70;41.25
46583;BME280;32309;48.858;8.252;2022-08-11T01:52:58;100620.66;;;19.73;40.35
46583;BME280;32309;48.858;8.252;2022-08-11T01:57:18;100621.13;;;19.88;40.92
46583;BME280;32309;48.858;8.252;2022-08-11T01:59:46;100619.97;;;20.00;40.61
46583;BME280;32309;48.858;8.252;2022-08-11T02:01:57;100617.59;;;20.07;40.44
46583;BME280;32309;48.858;8.252;2022-08-11T02:04:48;100622.16;;;20.15;40.46
46583;BME280;32309;48.858;8.252;2022-08-11T02:07:12;100617.44;;;20.18;40.40
46583;BME280;32309;48.858;8.252;2022-08-11T02:09:25;100621.50;;;20.13;39.91
46583;BME280;32309;48.858;8.252;2022-08-11T02:11:41;100623.56;;;20.09;40.19
46583;BME280;32309;48.858;8.252;2022-08-11T02:14:10;100621.75;;;20.09;40.18
46583;BME280;32309;48.858;8.252;2022-08-11T02:18:40;100620.53;;;20.04;40.25
46583;BME280;32309;48.858;8.252;2022-08-11T02:21:05;100617.75;;;20.05;40.25
46583;BME280;32309;48.858;8.252;2022-08-11T02:26:01;100608.06;;;20.06;39.71
46583;BME280;32309;48.858;8.252;2022-08-11T02:28:09;100607.22;;;20.05;39.92
46583;BME280;32309;48.858;8.252;2022-08-11T02:30:23;100613.19;;;20.07;40.01
46583;BME280;32309;48.858;8.252;2022-08-11T02:32:35;100608.06;;;20.06;40.09
46583;BME280;32309;48.858;8.252;2022-08-11T02:37:50;100605.31;;;20.07;39.99
46583;BME280;32309;48.858;8.252;2022-08-11T02:40:28;100606.53;;;20.03;39.19
46583;BME280;32309;48.858;8.252;2022-08-11T02:47:35;100613.22;;;19.68;41.13
46583;BME280;32309;48.858;8.252;2022-08-11T02:50:20;100613.34;;;19.67;41.28
46583;BME280;32309;48.858;8.252;2022-08-11T02:57:32;100612.66;;;19.65;41.43
46583;BME280;32309;48.858;8.252;2022-08-11T03:02:00;100613.59;;;19.63;41.23
46583;BME280;32309;48.858;8.252;2022-08-11T03:04:13;100618.19;;;19.61;41.74
46583;BME280;32309;48.858;8.252;2022-08-11T03:09:03;100623.31;;;19.63;41.83
46583;BME280;32309;48.858;8.252;2022-08-11T03:11:14;100618.31;;;19.50;41.86
46583;BME280;32309;48.858;8.252;2022-08-11T03:14:24;100623.44;;;19.52;42.05
46583;BME280;32309;48.858;8.252;2022-08-11T03:16:59;100622.59;;;19.61;42.07
46583;BME280;32309;48.858;8.252;2022-08-11T03:26:12;100621.78;;;19.41;41.87
46583;BME280;32309;48.858;8.252;2022-08-11T03:28:25;100625.22;;;19.32;42.39
46583;BME280;32309;48.858;8.252;2022-08-11T03:30:47;100631.09;;;19.04;41.17
46583;BME280;32309;48.858;8.252;2022-08-11T03:33:04;100628.53;;;18.83;42.86
46583;BME280;32309;48.858;8.252;2022-08-11T03:35:36;100628.50;;;18.73;43.26
46583;BME280;32309;48.858;8.252;2022-08-11T03:37:55;100632.28;;;18.81;41.23
46583;BME280;32309;48.858;8.252;2022-08-11T03:40:03;100627.31;;;18.87;42.41
46583;BME280;32309;48.858;8.252;2022-08-11T03:47:33;100628.63;;;19.03;41.40
46583;BME280;32309;48.858;8.252;2022-08-11T03:52:12;100625.97;;;18.93;41.81
46583;BME280;32309;48.858;8.252;2022-08-11T03:54:23;100631.28;;;18.82;41.52
46583;BME280;32309;48.858;8.252;2022-08-11T03:56:48;100632.81;;;18.74;41.64
46583;BME280;32309;48.858;8.252;2022-08-11T03:59:37;100637.63;;;18.69;42.32
46583;BME280;32309;48.858;8.252;2022-08-11T04:19:11;100633.53;;;18.55;43.11
46583;BME280;32309;48.858;8.252;2022-08-11T04:24:21;100633.00;;;18.52;42.48
46583;BME280;32309;48.858;8.252;2022-08-11T04:31:23;100634.75;;;18.51;43.13
46583;BME280;32309;48.858;8.252;2022-08-11T04:43:14;100650.13;;;18.56;42.90
46583;BME280;32309;48.858;8.252;2022-08-11T04:47:46;100645.06;;;18.64;42.70
46583;BME280;32309;48.858;8.252;2022-08-11T04:55:14;100645.56;;;18.58;43.65
46583;BME280;32309;48.858;8.252;2022-08-11T05:00:16;100649.59;;;18.62;44.16
46583;BME280;32309;48.858;8.252;2022-08-11T05:02:56;100650.75;;;18.69;44.04
46583;BME280;32309;48.858;8.252;2022-08-11T05:05:17;100654.75;;;18.73;42.93
46583;BME280;32309;48.858;8.252;2022-08-11T05:12:41;100651.50;;;18.29;45.42
46583;BME280;32309;48.858;8.252;2022-08-11T05:14:51;100657.47;;;18.31;44.05
46583;BME280;32309;48.858;8.252;2022-08-11T05:17:13;100653.34;;;18.38;44.16
46583;BME280;32309;48.858;8.252;2022-08-11T05:19:33;100656.94;;;18.37;44.74
46583;BME280;32309;48.858;8.252;2022-08-11T05:44:20;100643.56;;;18.71;45.19
46583;BME280;32309;48.858;8.252;2022-08-11T05:46:50;100652.31;;;18.82;45.07
46583;BME280;32309;48.858;8.252;2022-08-11T05:49:14;100650.56;;;18.92;45.03
46583;BME280;32309;48.858;8.252;2022-08-11T05:51:43;100652.13;;;19.04;45.15
46583;BME280;32309;48.858;8.252;2022-08-11T05:54:22;100653.97;;;19.23;44.49
46583;BME280;32309;48.858;8.252;2022-08-11T05:57:04;100653.88;;;19.35;44.47
46583;BME280;32309;48.858;8.252;2022-08-11T05:59:10;100654.97;;;19.52;44.57
46583;BME280;32309;48.858;8.252;2022-08-11T06:01:12;100644.19;;;19.65;44.12
46583;BME280;32309;48.858;8.252;2022-08-11T06:03:36;100653.34;;;19.80;43.85
46583;BME280;32309;48.858;8.252;2022-08-11T06:05:56;100655.84;;;20.01;43.34
46583;BME280;32309;48.858;8.252;2022-08-11T06:07:58;100652.22;;;20.12;43.05
46583;BME280;32309;48.858;8.252;2022-08-11T06:10:08;100639.59;;;20.25;42.67
46583;BME280;32309;48.858;8.252;2022-08-11T06:12:16;100640.94;;;20.39;42.52
46583;BME280;32309;48.858;8.252;2022-08-11T06:14:19;100644.91;;;20.53;42.17
46583;BME280;32309;48.858;8.252;2022-08-11T06:16:22;100635.88;;;20.66;41.98
46583;BME280;32309;48.858;8.252;2022-08-11T06:18:26;100642.22;;;20.73;41.75
46583;BME280;32309;48.858;8.252;2022-08-11T06:20:28;100641.09;;;20.75;41.93
46583;BME280;32309;48.858;8.252;2022-08-11T06:22:36;100643.25;;;20.90;41.63
46583;BME280;32309;48.858;8.252;2022-08-11T06:24:39;100650.91;;;21.11;41.21
46583;BME280;32309;48.858;8.252;2022-08-11T06:26:46;100652.06;;;21.26;40.97
46583;BME280;32309;48.858;8.252;2022-08-11T06:28:49;100654.34;;;21.39;40.72
46583;BME280;32309;48.858;8.252;2022-08-11T06:30:49;100650.06;;;21.56;40.75
46583;BME280;32309;48.858;8.252;2022-08-11T06:32:50;100652.31;;;21.69;40.20
46583;BME280;32309;48.858;8.252;2022-08-11T06:44:40;100638.50;;;22.38;38.84
46583;BME280;32309;48.858;8.252;2022-08-11T06:46:47;100641.69;;;22.50;38.82
46583;BME280;32309;48.858;8.252;2022-08-11T06:48:50;100638.13;;;22.67;38.32
46583;BME280;32309;48.858;8.252;2022-08-11T06:51:02;100633.25;;;22.81;37.66
46583;BME280;32309;48.858;8.252;2022-08-11T06:53:14;100631.09;;;22.84;37.70
46583;BME280;32309;48.858;8.252;2022-08-11T06:55:24;100632.44;;;22.88;37.61
46583;BME280;32309;48.858;8.252;2022-08-11T06:57:47;100632.66;;;22.95;37.59
46583;BME280;32309;48.858;8.252;2022-08-11T07:00:06;100637.44;;;23.08;37.53
46583;BME280;32309;48.858;8.252;2022-08-11T07:02:27;100636.69;;;23.24;36.91
46583;BME280;32309;48.858;8.252;2022-08-11T07:04:40;100629.94;;;23.38;36.69
46583;BME280;32309;48.858;8.252;2022-08-11T07:13:04;100646.84;;;23.53;36.20
46583;BME280;32309;48.858;8.252;2022-08-11T07:15:25;100633.09;;;23.50;36.03
46583;BME280;32309;48.858;8.252;2022-08-11T07:17:48;100635.41;;;23.45;36.48
46583;BME280;32309;48.858;8.252;2022-08-11T07:20:10;100638.41;;;23.50;36.43
46583;BME280;32309;48.858;8.252;2022-08-11T07:22:34;100636.44;;;23.52;36.53
46583;BME280;32309;48.858;8.252;2022-08-11T07:25:32;100639.25;;;23.58;36.39
46583;BME280;32309;48.858;8.252;2022-08-11T07:28:09;100642.06;;;23.65;36.25
46583;BME280;32309;48.858;8.252;2022-08-11T07:30:39;100632.09;;;23.67;35.89
46583;BME280;32309;48.858;8.252;2022-08-11T07:32:54;100629.00;;;23.64;36.42
46583;BME280;32309;48.858;8.252;2022-08-11T07:35:44;100621.22;;;23.70;36.50
46583;BME280;32309;48.858;8.252;2022-08-11T07:37:46;100631.78;;;23.79;36.01
46583;BME280;32309;48.858;8.252;2022-08-11T07:39:49;100632.28;;;23.82;36.42
46583;BME280;32309;48.858;8.252;2022-08-11T07:47:30;100626.50;;;24.12;35.76
46583;BME280;32309;48.858;8.252;2022-08-11T07:50:08;100620.31;;;24.28;35.66
46583;BME280;32309;48.858;8.252;2022-08-11T07:52:39;100617.94;;;24.49;35.31
46583;BME280;32309;48.858;8.252;2022-08-11T07:57:13;100613.88;;;24.78;34.49
46583;BME280;32309;48.858;8.252;2022-08-11T08:04:55;100610.03;;;25.12;34.04
46583;BME280;32309;48.858;8.252;2022-08-11T08:07:16;100608.63;;;25.24;33.49
46583;BME280;32309;48.858;8.252;2022-08-11T08:09:37;100610.09;;;25.27;33.29
46583;BME280;32309;48.858;8.252;2022-08-11T08:11:59;100611.91;;;25.35;33.31
46583;BME280;32309;48.858;8.252;2022-08-11T08:14:19;100606.38;;;25.45;32.91
46583;BME280;32309;48.858;8.252;2022-08-11T08:16:39;100607.94;;;25.54;32.86
46583;BME280;32309;48.858;8.252;2022-08-11T08:18:57;100607.50;;;25.65;32.43
46583;BME280;32309;48.858;8.252;2022-08-11T08:20:58;100607.16;;;25.68;32.54
46583;BME280;32309;48.858;8.252;2022-08-11T08:29:41;100609.03;;;25.98;32.20
46583;BME280;32309;48.858;8.252;2022-08-11T08:32:05;100601.88;;;25.98;32.10
46583;BME280;32309;48.858;8.252;2022-08-11T08:34:27;100606.97;;;26.08;32.09
46583;BME280;32309;48.858;8.252;2022-08-11T08:36:27;100599.09;;;26.15;31.81
46583;BME280;32309;48.858;8.252;2022-08-11T08:38:28;100597.00;;;26.25;31.54
46583;BME280;32309;48.858;8.252;2022-08-11T08:40:28;100598.00;;;26.24;31.47
46583;BME280;32309;48.858;8.252;2022-08-11T08:42:29;100602.41;;;26.32;31.42
46583;BME280;32309;48.858;8.252;2022-08-11T08:44:34;100609.47;;;26.39;31.29
46583;BME280;32309;48.858;8.252;2022-08-11T08:46:42;100589.56;;;26.50;30.77
46583;BME280;32309;48.858;8.252;2022-08-11T08:48:45;100604.38;;;26.60;30.08
46583;BME280;32309;48.858;8.252;2022-08-11T08:50:48;100596.84;;;26.63;29.92
46583;BME280;32309;48.858;8.252;2022-08-11T08:53:10;100615.28;;;26.65;30.07
46583;BME280;32309;48.858;8.252;2022-08-11T08:55:15;100602.28;;;26.70;29.67
46583;BME280;32309;48.858;8.252;2022-08-11T08:57:18;100604.56;;;26.73;29.62
46583;BME280;32309;48.858;8.252;2022-08-11T08:59:22;100598.06;;;26.76;29.45
46583;BME280;32309;48.858;8.252;2022-08-11T09:01:26;100598.25;;;26.74;29.76
46583;BME280;32309;48.858;8.252;2022-08-11T09:03:31;100594.81;;;26.80;29.81
46583;BME280;32309;48.858;8.252;2022-08-11T09:05:36;100590.88;;;26.91;29.70
46583;BME280;32309;48.858;8.252;2022-08-11T09:07:37;100592.50;;;26.92;29.50
46583;BME280;32309;48.858;8.252;2022-08-11T09:09:42;100605.31;;;27.03;29.18
46583;BME280;32309;48.858;8.252;2022-08-11T09:11:43;100587.63;;;26.96;29.38
46583;BME280;32309;48.858;8.252;2022-08-11T09:13:49;100589.56;;;27.02;29.20
46583;BME280;32309;48.858;8.252;2022-08-11T09:15:51;100587.41;;;27.12;29.12
46583;BME280;32309;48.858;8.252;2022-08-11T09:17:53;100600.53;;;27.14;28.83
46583;BME280;32309;48.858;8.252;2022-08-11T09:20:03;100592.03;;;27.03;29.20
46583;BME280;32309;48.858;8.252;2022-08-11T09:22:05;100594.03;;;27.01;29.49
46583;BME280;32309;48.858;8.252;2022-08-11T09:24:25;100591.81;;;27.05;29.69
46583;BME280;32309;48.858;8.252;2022-08-11T09:26:44;100586.13;;;27.08;29.41
46583;BME280;32309;48.858;8.252;2022-08-11T09:29:01;100589.50;;;27.17;29.31
46583;BME280;32309;48.858;8.252;2022-08-11T09:31:03;100595.81;;;27.16;29.06
46583;BME280;32309;48.858;8.252;2022-08-11T09:33:05;100605.31;;;27.25;29.29
46583;BME280;32309;48.858;8.252;2022-08-11T09:35:06;100591.91;;;27.33;28.69
46583;BME280;32309;48.858;8.252;2022-08-11T09:37:08;100589.59;;;27.30;29.15
46583;BME280;32309;48.858;8.252;2022-08-11T09:39:28;100583.66;;;27.28;28.81
46583;BME280;32309;48.858;8.252;2022-08-11T09:41:48;100581.63;;;27.30;28.41
46583;BME280;32309;48.858;8.252;2022-08-11T09:43:49;100588.59;;;27.31;28.59
46583;BME280;32309;48.858;8.252;2022-08-11T09:46:08;100584.34;;;27.37;29.02
46583;BME280;32309;48.858;8.252;2022-08-11T09:48:10;100590.06;;;27.55;28.53
46583;BME280;32309;48.858;8.252;2022-08-11T09:50:11;100586.06;;;27.66;27.70
46583;BME280;32309;48.858;8.252;2022-08-11T09:52:15;100586.97;;;27.80;26.57
46583;BME280;32309;48.858;8.252;2022-08-11T09:54:17;100585.97;;;27.81;26.31
46583;BME280;32309;48.858;8.252;2022-08-11T09:56:18;100587.56;;;27.76;26.62
46583;BME280;32309;48.858;8.252;2022-08-11T09:58:43;100586.56;;;27.83;27.11
46583;BME280;32309;48.858;8.252;2022-08-11T10:00:44;100581.31;;;27.90;26.49
46583;BME280;32309;48.858;8.252;2022-08-11T10:02:47;100594.28;;;28.00;25.77
46583;BME280;32309;48.858;8.252;2022-08-11T10:04:49;100586.25;;;27.93;25.16
46583;BME280;32309;48.858;8.252;2022-08-11T10:07:15;100594.78;;;27.88;25.10
46583;BME280;32309;48.858;8.252;2022-08-11T10:09:19;100580.44;;;27.83;24.96
46583;BME280;32309;48.858;8.252;2022-08-11T10:11:22;100582.03;;;27.77;25.56
46583;BME280;32309;48.858;8.252;2022-08-11T10:13:30;100597.28;;;27.90;25.57
46583;BME280;32309;48.858;8.252;2022-08-11T10:15:53;100591.97;;;27.90;25.47
46583;BME280;32309;48.858;8.252;2022-08-11T10:17:57;100584.16;;;27.88;25.17
46583;BME280;32309;48.858;8.252;2022-08-11T10:20:21;100604.78;;;27.80;25.09
46583;BME280;32309;48.858;8.252;2022-08-11T10:22:22;100578.38;;;27.78;25.03
46583;BME280;32309;48.858;8.252;2022-08-11T10:24:41;100585.97;;;27.81;24.86
46583;BME280;32309;48.858;8.252;2022-08-11T10:27:02;100591.13;;;27.89;25.07
46583;BME280;32309;48.858;8.252;2022-08-11T10:29:03;100589.91;;;27.92;24.97
46583;BME280;32309;48.858;8.252;2022-08-11T10:31:25;100588.25;;;27.91;25.33
46583;BME280;32309;48.858;8.252;2022-08-11T10:33:44;100577.28;;;28.01;25.23
46583;BME280;32309;48.858;8.252;2022-08-11T10:35:59;100577.94;;;28.10;25.27
46583;BME280;32309;48.858;8.252;2022-08-11T10:38:00;100570.78;;;28.10;25.34
46583;BME280;32309;48.858;8.252;2022-08-11T10:40:02;100572.25;;;28.13;25.35
46583;BME280;32309;48.858;8.252;2022-08-11T10:42:04;100573.03;;;28.06;25.73
46583;BME280;32309;48.858;8.252;2022-08-11T10:44:24;100565.47;;;28.10;25.93
46583;BME280;32309;48.858;8.252;2022-08-11T10:46:25;100564.31;;;28.26;26.17
46583;BME280;32309;48.858;8.252;2022-08-11T10:48:45;100563.91;;;28.29;25.85
46583;BME280;32309;48.858;8.252;2022-08-11T10:50:46;100553.84;;;28.25;25.69
46583;BME280;32309;48.858;8.252;2022-08-11T10:53:06;100558.97;;;28.26;25.90
46583;BME280;32309;48.858;8.252;2022-08-11T10:55:26;100543.56;;;28.21;25.72
46583;BME280;32309;48.858;8.252;2022-08-11T10:57:46;100540.66;;;28.10;26.26
46583;BME280;32309;48.858;8.252;2022-08-11T11:00:05;100538.28;;;28.28;25.69
46583;BME280;32309;48.858;8.252;2022-08-11T11:02:12;100532.56;;;28.31;25.68
46583;BME280;32309;48.858;8.252;2022-08-11T11:04:15;100533.00;;;28.35;25.67
46583;BME280;32309;48.858;8.252;2022-08-11T11:06:20;100534.44;;;28.37;25.97
46583;BME280;32309;48.858;8.252;2022-08-11T11:08:25;100533.47;;;28.59;25.49
46583;BME280;32309;48.858;8.252;2022-08-11T11:10:47;100535.31;;;28.58;25.88
46583;BME280;32309;48.858;8.252;2022-08-11T11:12:52;100517.06;;;28.62;25.79
46583;BME280;32309;48.858;8.252;2022-08-11T11:15:15;100526.97;;;28.75;25.01
46583;BME280;32309;48.858;8.252;2022-08-11T11:17:42;100524.94;;;28.83;23.79
46583;BME280;32309;48.858;8.252;2022-08-11T11:20:00;100528.81;;;28.74;23.72
46583;BME280;32309;48.858;8.252;2022-08-11T11:22:04;100517.75;;;28.77;23.59
46583;BME280;32309;48.858;8.252;2022-08-11T11:24:34;100524.50;;;28.73;23.73
46583;BME280;32309;48.858;8.252;2022-08-11T11:29:41;100513.00;;;28.66;24.01
46583;BME280;32309;48.858;8.252;2022-08-11T11:36:59;100508.31;;;28.75;24.11
46583;BME280;32309;48.858;8.252;2022-08-11T11:39:00;100507.09;;;28.91;24.30
46583;BME280;32309;48.858;8.252;2022-08-11T11:41:01;100507.91;;;28.91;24.47
46583;BME280;32309;48.858;8.252;2022-08-11T11:43:23;100503.59;;;28.83;24.07
46583;BME280;32309;48.858;8.252;2022-08-11T11:45:23;100496.63;;;28.96;24.48
46583;BME280;32309;48.858;8.252;2022-08-11T11:47:24;100493.97;;;29.02;24.35
46583;BME280;32309;48.858;8.252;2022-08-11T11:49:26;100496.63;;;28.96;24.35
46583;BME280;32309;48.858;8.252;2022-08-11T11:51:28;100501.34;;;29.07;24.45
46583;BME280;32309;48.858;8.252;2022-08-11T11:53:28;100488.63;;;29.16;24.21
46583;BME280;32309;48.858;8.252;2022-08-11T11:55:29;100474.66;;;29.14;23.84
46583;BME280;32309;48.858;8.252;2022-08-11T11:57:30;100470.97;;;29.08;23.35
46583;BME280;32309;48.858;8.252;2022-08-11T11:59:51;100467.50;;;29.14;24.22
46583;BME280;32309;48.858;8.252;2022-08-11T12:02:12;100470.78;;;29.43;23.79
46583;BME280;32309;48.858;8.252;2022-08-11T12:04:15;100469.72;;;29.58;23.29
46583;BME280;32309;48.858;8.252;2022-08-11T12:06:17;100481.22;;;29.58;23.13
46583;BME280;32309;48.858;8.252;2022-08-11T12:08:20;100478.56;;;29.45;23.43
46583;BME280;32309;48.858;8.252;2022-08-11T12:10:23;100470.38;;;29.26;23.94
46583;BME280;32309;48.858;8.252;2022-08-11T12:12:24;100466.84;;;29.39;23.44
46583;BME280;32309;48.858;8.252;2022-08-11T12:14:44;100468.72;;;29.45;23.02
46583;BME280;32309;48.858;8.252;2022-08-11T12:16:45;100452.50;;;29.40;23.01
46583;BME280;32309;48.858;8.252;2022-08-11T12:18:46;100471.59;;;29.44;22.70
46583;BME280;32309;48.858;8.252;2022-08-11T12:20:49;100466.25;;;29.44;22.88
46583;BME280;32309;48.858;8.252;2022-08-11T12:22:50;100459.47;;;29.41;23.27
46583;BME280;32309;48.858;8.252;2022-08-11T12:25:09;100454.75;;;29.50;23.60
46583;BME280;32309;48.858;8.252;2022-08-11T12:27:28;100447.06;;;29.74;22.88
46583;BME280;32309;48.858;8.252;2022-08-11T12:29:30;100445.19;;;29.81;22.40
46583;BME280;32309;48.858;8.252;2022-08-11T12:31:33;100432.66;;;29.75;22.73
46583;BME280;32309;48.858;8.252;2022-08-11T12:33:36;100438.19;;;29.80;22.58
46583;BME280;32309;48.858;8.252;2022-08-11T12:35:37;100441.28;;;29.83;22.55
46583;BME280;32309;48.858;8.252;2022-08-11T12:37:39;100437.38;;;29.86;22.21
46583;BME280;32309;48.858;8.252;2022-08-11T12:39:46;100425.91;;;29.79;22.02
46583;BME280;32309;48.858;8.252;2022-08-11T12:42:10;100438.00;;;29.75;22.54
46583;BME280;32309;48.858;8.252;2022-08-11T12:44:29;100433.47;;;29.82;22.63
46583;BME280;32309;48.858;8.252;2022-08-11T12:46:49;100417.41;;;29.95;21.83
46583;BME280;32309;48.858;8.252;2022-08-11T12:48:51;100433.44;;;29.95;21.48
46583;BME280;32309;48.858;8.252;2022-08-11T12:51:18;100428.53;;;29.92;21.72
46583;BME280;32309;48.858;8.252;2022-08-11T12:53:56;100420.53;;;29.85;21.85
46583;BME280;32309;48.858;8.252;2022-08-11T12:56:02;100420.75;;;29.91;22.08
46583;BME280;32309;48.858;8.252;2022-08-11T12:58:22;100416.13;;;30.04;21.61
46583;BME280;32309;48.858;8.252;2022-08-11T13:00:23;100418.22;;;30.02;21.74
46583;BME280;32309;48.858;8.252;2022-08-11T13:02:47;100407.50;;;30.09;21.57
46583;BME280;32309;48.858;8.252;2022-08-11T13:05:07;100410.50;;;30.19;21.69
46583;BME280;32309;48.858;8.252;2022-08-11T13:07:12;100408.84;;;30.25;21.86
46583;BME280;32309;48.858;8.252;2022-08-11T13:09:14;100402.81;;;30.30;21.67
46583;BME280;32309;48.858;8.252;2022-08-11T13:11:15;100410.03;;;30.29;21.89
46583;BME280;32309;48.858;8.252;2022-08-11T13:13:36;100413.28;;;30.31;21.64
46583;BME280;32309;48.858;8.252;2022-08-11T13:15:38;100402.19;;;30.34;21.57
46583;BME280;32309;48.858;8.252;2022-08-11T13:17:40;100405.28;;;30.31;21.55
46583;BME280;32309;48.858;8.252;2022-08-11T13:19:41;100403.31;;;30.20;21.09
46583;BME280;32309;48.858;8.252;2022-08-11T13:21:43;100393.25;;;30.15;21.16
46583;BME280;32309;48.858;8.252;2022-08-11T13:23:45;100394.63;;;30.25;21.30
46583;BME280;32309;48.858;8.252;2022-08-11T13:25:46;100398.94;;;30.26;21.29
46583;BME280;32309;48.858;8.252;2022-08-11T13:27:48;100393.38;;;30.27;21.47
46583;BME280;32309;48.858;8.252;2022-08-11T13:29:50;100391.06;;;30.37;21.54
46583;BME280;32309;48.858;8.252;2022-08-11T13:32:12;100389.34;;;30.50;21.54
46583;BME280;32309;48.858;8.252;2022-08-11T13:34:15;100380.50;;;30.49;21.54
46583;BME280;32309;48.858;8.252;2022-08-11T13:36:17;100388.31;;;30.51;21.75
46583;BME280;32309;48.858;8.252;2022-08-11T13:38:21;100369.28;;;30.66;21.32
46583;BME280;32309;48.858;8.252;2022-08-11T13:40:24;100363.59;;;30.56;21.14
46583;BME280;32309;48.858;8.252;2022-08-11T13:42:25;100366.50;;;30.54;21.18
46583;BME280;32309;48.858;8.252;2022-08-11T13:44:27;100363.38;;;30.57;21.35
46583;BME280;32309;48.858;8.252;2022-08-11T13:46:30;100364.13;;;30.64;20.91
46583;BME280;32309;48.858;8.252;2022-08-11T13:48:32;100373.38;;;30.68;21.26
46583;BME280;32309;48.858;8.252;2022-08-11T13:50:33;100361.91;;;30.61;21.45
46583;BME280;32309;48.858;8.252;2022-08-11T13:52:53;100364.97;;;30.65;20.73
46583;BME280;32309;48.858;8.252;2022-08-11T13:54:53;100363.03;;;30.72;21.05
46583;BME280;32309;48.858;8.252;2022-08-11T13:56:56;100358.22;;;30.81;20.52
46583;BME280;32309;48.858;8.252;2022-08-11T13:59:01;100363.41;;;30.76;19.98
46583;BME280;32309;48.858;8.252;2022-08-11T14:01:03;100356.94;;;30.65;20.39
46583;BME280;32309;48.858;8.252;2022-08-11T14:03:07;100361.91;;;30.61;20.78
46583;BME280;32309;48.858;8.252;2022-08-11T14:05:18;100349.66;;;30.72;21.15
46583;BME280;32309;48.858;8.252;2022-08-11T14:07:26;100344.75;;;30.69;20.83
46583;BME280;32309;48.858;8.252;2022-08-11T14:09:39;100350.34;;;30.67;20.89
46583;BME280;32309;48.858;8.252;2022-08-11T14:11:42;100349.50;;;30.67;20.55
46583;BME280;32309;48.858;8.252;2022-08-11T14:14:02;100348.78;;;30.78;20.71
46583;BME280;32309;48.858;8.252;2022-08-11T14:16:07;100350.66;;;30.78;20.99
46583;BME280;32309;48.858;8.252;2022-08-11T14:18:19;100335.41;;;30.78;20.15
46583;BME280;32309;48.858;8.252;2022-08-11T14:20:22;100335.03;;;30.75;20.67
46583;BME280;32309;48.858;8.252;2022-08-11T14:22:23;100331.31;;;30.76;20.76
46583;BME280;32309;48.858;8.252;2022-08-11T14:24:25;100328.63;;;30.76;20.22
46583;BME280;32309;48.858;8.252;2022-08-11T14:26:25;100333.19;;;30.75;20.61
46583;BME280;32309;48.858;8.252;2022-08-11T14:28:26;100324.31;;;30.75;20.42
46583;BME280;32309;48.858;8.252;2022-08-11T14:30:27;100319.94;;;30.80;20.64
46583;BME280;32309;48.858;8.252;2022-08-11T14:32:46;100320.41;;;30.96;20.07
46583;BME280;32309;48.858;8.252;2022-08-11T14:34:48;100316.25;;;31.00;19.85
46583;BME280;32309;48.858;8.252;2022-08-11T14:36:50;100312.72;;;31.06;19.71
46583;BME280;32309;48.858;8.252;2022-08-11T14:38:53;100314.59;;;31.06;19.65
46583;BME280;32309;48.858;8.252;2022-08-11T14:40:54;100300.56;;;30.85;20.01
46583;BME280;32309;48.858;8.252;2022-08-11T14:43:13;100299.81;;;30.78;20.43
46583;BME280;32309;48.858;8.252;2022-08-11T14:45:37;100305.84;;;30.92;20.29
46583;BME280;32309;48.858;8.252;2022-08-11T14:47:58;100306.94;;;31.02;19.39
46583;BME280;32309;48.858;8.252;2022-08-11T14:50:00;100301.81;;;31.01;19.71
46583;BME280;32309;48.858;8.252;2022-08-11T14:52:03;100302.38;;;31.10;19.12
46583;BME280;32309;48.858;8.252;2022-08-11T14:54:08;100304.44;;;31.08;19.36